Time;durP1;ratioP1;P1;durP2;ratioP2;P2;SDS_P1;SDS_P2;PMS_P1;PMS_P2;Temp;Humidity;BMP_temperature;BMP_pressure;BME280_temperature;BME280_humidity;BME280_pressure;Samples;Min_cycle;Max_cycle;Signal;HPM_P1;HPM_P2
2023/08/27 00:01:11;;;;;;;1.88;1.02;;;;;;;;;;5029069;28;20054;-70
2023/08/27 00:03:40;;;;;;;5.68;1.20;;;;;;;;;;5026898;28;20054;-66
2023/08/27 00:06:10;;;;;;;1.75;1.05;;;;;;;;;;5029259;28;20049;-66
2023/08/27 00:08:41;;;;;;;0.75;0.73;;;;;;;;;;5025307;28;20135;-66
2023/08/27 00:11:09;;;;;;;1.33;1.08;;;;;;;;;;5026223;28;20038;-66
2023/08/27 00:13:38;;;;;;;0.98;0.85;;;;;;;;;;5023311;28;20124;-66
2023/08/27 00:16:07;;;;;;;1.15;0.80;;;;;;;;;;5028691;28;20053;-66
2023/08/27 00:18:36;;;;;;;2.45;1.20;;;;;;;;;;5024595;28;20489;-66
2023/08/27 00:21:04;;;;;;;1.60;0.93;;;;;;;;;;5028334;28;20387;-67
2023/08/27 00:23:33;;;;;;;7.47;1.00;;;;;;;;;;5026975;28;20042;-66
2023/08/27 00:26:03;;;;;;;3.53;0.88;;;;;;;;;;5028204;28;20486;-67
2023/08/27 00:28:31;;;;;;;1.65;0.90;;;;;;;;;;5026959;28;20144;-65
2023/08/27 00:31:03;;;;;;;3.17;1.00;;;;;;;;;;5024983;28;20038;-66
2023/08/27 00:33:31;;;;;;;8.60;1.40;;;;;;;;;;5026243;28;20057;-66
2023/08/27 00:36:00;;;;;;;2.22;1.23;;;;;;;;;;5024745;28;20498;-67
2023/08/27 00:38:28;;;;;;;1.35;0.90;;;;;;;;;;5024017;28;20070;-67
2023/08/27 00:40:57;;;;;;;2.08;1.00;;;;;;;;;;5024865;28;20126;-67
2023/08/27 00:43:27;;;;;;;2.22;1.13;;;;;;;;;;5027517;28;20509;-66
2023/08/27 00:45:56;;;;;;;1.63;0.80;;;;;;;;;;5024822;28;20050;-65
2023/08/27 00:48:24;;;;;;;1.40;0.98;;;;;;;;;;5016406;28;20132;-66
2023/08/27 00:50:53;;;;;;;1.60;0.82;;;;;;;;;;5024342;28;20127;-67
2023/08/27 00:53:21;;;;;;;0.98;0.80;;;;;;;;;;5027881;28;20084;-67
2023/08/27 00:55:51;;;;;;;4.55;0.82;;;;;;;;;;5025520;28;20049;-66
2023/08/27 00:58:19;;;;;;;1.20;0.80;;;;;;;;;;5027551;28;20099;-67
2023/08/27 01:00:49;;;;;;;9.02;1.10;;;;;;;;;;5022416;28;20081;-67
2023/08/27 01:03:17;;;;;;;2.55;0.90;;;;;;;;;;5035585;23;20045;-67
2023/08/27 01:05:46;;;;;;;2.83;0.98;;;;;;;;;;5025885;28;20057;-62
2023/08/27 01:08:17;;;;;;;3.42;1.00;;;;;;;;;;5027859;28;20052;-62
2023/08/27 01:10:50;;;;;;;2.60;0.90;;;;;;;;;;5025925;28;20064;-60
2023/08/27 01:13:21;;;;;;;2.35;0.90;;;;;;;;;;5027743;28;20131;-62
2023/08/27 01:15:55;;;;;;;1.70;1.10;;;;;;;;;;5025541;28;20041;-63
2023/08/27 01:18:23;;;;;;;3.97;1.15;;;;;;;;;;5025082;28;20046;-63
2023/08/27 01:20:51;;;;;;;5.60;1.17;;;;;;;;;;5024939;28;20075;-62
2023/08/27 01:23:21;;;;;;;1.42;1.00;;;;;;;;;;5025476;28;20134;-63
2023/08/27 01:25:52;;;;;;;3.15;1.00;;;;;;;;;;5029994;28;20073;-61
2023/08/27 01:28:24;;;;;;;1.20;0.80;;;;;;;;;;5029374;28;20041;-62
2023/08/27 01:30:55;;;;;;;3.28;1.38;;;;;;;;;;5026042;28;20469;-62
2023/08/27 01:33:27;;;;;;;2.45;1.15;;;;;;;;;;5025297;28;20042;-61
2023/08/27 01:35:56;;;;;;;6.60;1.00;;;;;;;;;;5024644;28;20099;-63
2023/08/27 01:38:26;;;;;;;3.30;0.80;;;;;;;;;;5025190;28;20457;-62
2023/08/27 01:40:55;;;;;;;6.40;0.82;;;;;;;;;;5027590;28;20542;-61
2023/08/27 01:43:23;;;;;;;2.05;1.20;;;;;;;;;;5023655;28;20461;-63
2023/08/27 01:45:52;;;;;;;3.40;0.93;;;;;;;;;;5027319;28;20049;-62
2023/08/27 01:48:20;;;;;;;1.30;0.93;;;;;;;;;;5025971;28;20042;-62
2023/08/27 01:50:48;;;;;;;4.13;0.90;;;;;;;;;;5026138;28;20073;-62
2023/08/27 01:53:17;;;;;;;1.80;1.05;;;;;;;;;;5027051;28;20050;-63
2023/08/27 01:55:46;;;;;;;1.25;0.80;;;;;;;;;;5026159;28;20065;-63
2023/08/27 01:58:15;;;;;;;3.08;1.05;;;;;;;;;;5027652;28;20073;-63
2023/08/27 02:00:43;;;;;;;4.28;1.17;;;;;;;;;;5025042;28;20111;-63
2023/08/27 02:03:12;;;;;;;2.45;0.82;;;;;;;;;;5024006;28;20041;-63
2023/08/27 02:05:40;;;;;;;2.08;1.08;;;;;;;;;;5024869;28;20483;-63
2023/08/27 02:08:09;;;;;;;2.58;0.90;;;;;;;;;;5023232;28;20073;-63
2023/08/27 02:10:37;;;;;;;1.10;0.73;;;;;;;;;;5028797;28;20065;-63
2023/08/27 02:13:07;;;;;;;2.22;1.10;;;;;;;;;;5028228;28;20081;-64
2023/08/27 02:15:35;;;;;;;2.63;1.08;;;;;;;;;;5030209;28;20045;-64
2023/08/27 02:18:04;;;;;;;2.45;1.27;;;;;;;;;;5028931;28;20049;-64
2023/08/27 02:20:32;;;;;;;2.13;0.90;;;;;;;;;;5026737;28;20136;-63
2023/08/27 02:23:00;;;;;;;2.33;1.08;;;;;;;;;;5027970;28;20494;-63
2023/08/27 02:25:29;;;;;;;5.13;1.10;;;;;;;;;;5030550;28;20143;-64
2023/08/27 02:27:57;;;;;;;3.92;1.27;;;;;;;;;;5027723;28;20383;-63
2023/08/27 02:30:27;;;;;;;2.00;1.08;;;;;;;;;;5030302;28;20050;-63
2023/08/27 02:32:55;;;;;;;5.05;0.82;;;;;;;;;;5026543;28;20115;-63
2023/08/27 02:35:23;;;;;;;2.95;0.85;;;;;;;;;;5025340;28;20050;-64
2023/08/27 02:37:52;;;;;;;2.72;0.88;;;;;;;;;;5031252;28;20561;-66
2023/08/27 02:40:20;;;;;;;2.45;0.90;;;;;;;;;;5016816;28;20041;-63
2023/08/27 02:42:49;;;;;;;2.55;1.08;;;;;;;;;;5031017;28;20057;-63
2023/08/27 02:45:19;;;;;;;4.53;0.90;;;;;;;;;;5025935;28;20127;-63
2023/08/27 02:47:49;;;;;;;5.90;1.10;;;;;;;;;;5026440;28;20107;-62
2023/08/27 02:50:18;;;;;;;1.73;0.90;;;;;;;;;;5027959;28;20059;-61
2023/08/27 02:52:46;;;;;;;2.20;0.90;;;;;;;;;;5026151;28;20138;-63
2023/08/27 02:55:15;;;;;;;1.95;1.10;;;;;;;;;;5024803;28;20069;-63
2023/08/27 02:57:44;;;;;;;2.33;1.20;;;;;;;;;;5023435;28;20057;-62
2023/08/27 03:00:14;;;;;;;2.15;0.95;;;;;;;;;;5029059;28;20354;-62
2023/08/27 03:02:42;;;;;;;2.80;1.10;;;;;;;;;;5015863;28;20751;-63
2023/08/27 03:05:12;;;;;;;4.10;1.08;;;;;;;;;;5028052;28;20059;-67
2023/08/27 03:07:41;;;;;;;2.65;1.15;;;;;;;;;;5026664;28;20045;-62
2023/08/27 03:10:09;;;;;;;2.15;0.98;;;;;;;;;;5026565;28;20057;-62
2023/08/27 03:12:37;;;;;;;2.38;0.80;;;;;;;;;;5025437;28;20045;-62
2023/08/27 03:15:06;;;;;;;1.55;0.80;;;;;;;;;;5029229;28;20053;-63
2023/08/27 03:17:35;;;;;;;5.07;1.10;;;;;;;;;;5027666;28;20037;-62
2023/08/27 03:20:03;;;;;;;4.18;0.88;;;;;;;;;;5029250;28;20068;-62
2023/08/27 03:22:33;;;;;;;4.53;1.20;;;;;;;;;;5021975;28;20140;-64
2023/08/27 03:25:01;;;;;;;3.40;0.93;;;;;;;;;;5028780;28;20069;-62
2023/08/27 03:27:30;;;;;;;5.00;0.75;;;;;;;;;;5027886;28;20353;-66
2023/08/27 03:29:58;;;;;;;1.92;1.00;;;;;;;;;;5026609;28;20140;-62
2023/08/27 03:32:27;;;;;;;1.42;0.98;;;;;;;;;;5024627;28;20160;-66
2023/08/27 03:34:55;;;;;;;4.55;1.27;;;;;;;;;;5028760;28;20042;-62
2023/08/27 03:37:24;;;;;;;3.25;1.35;;;;;;;;;;5027451;28;20577;-63
2023/08/27 03:39:53;;;;;;;6.38;2.03;;;;;;;;;;5028384;28;20053;-62
2023/08/27 03:42:22;;;;;;;7.20;1.85;;;;;;;;;;5026882;28;20080;-62
2023/08/27 03:44:50;;;;;;;6.20;1.95;;;;;;;;;;5027369;28;20384;-62
2023/08/27 03:47:18;;;;;;;2.90;1.35;;;;;;;;;;5028531;28;20041;-62
2023/08/27 03:49:47;;;;;;;4.32;1.30;;;;;;;;;;5024751;28;20049;-64
2023/08/27 03:52:15;;;;;;;4.57;1.40;;;;;;;;;;5029523;28;20072;-63
2023/08/27 03:54:43;;;;;;;4.40;1.42;;;;;;;;;;5026483;28;20108;-63
2023/08/27 03:57:13;;;;;;;3.08;1.30;;;;;;;;;;5029535;28;20572;-62
2023/08/27 03:59:41;;;;;;;3.88;1.17;;;;;;;;;;5023627;28;21311;-63
2023/08/27 04:02:10;;;;;;;4.00;1.23;;;;;;;;;;5026566;28;20073;-62
2023/08/27 04:04:39;;;;;;;2.80;1.00;;;;;;;;;;5023363;28;20045;-63
2023/08/27 04:07:07;;;;;;;2.97;1.00;;;;;;;;;;5026972;28;20063;-64
2023/08/27 04:09:36;;;;;;;5.28;1.40;;;;;;;;;;5026419;28;20137;-63
2023/08/27 04:12:04;;;;;;;5.30;1.30;;;;;;;;;;5027246;28;20120;-63
2023/08/27 04:14:34;;;;;;;3.53;1.00;;;;;;;;;;5025383;28;20123;-62
2023/08/27 04:17:02;;;;;;;4.07;1.33;;;;;;;;;;5024326;28;20114;-64
2023/08/27 04:19:30;;;;;;;1.88;0.88;;;;;;;;;;5024568;28;20292;-61
2023/08/27 04:21:59;;;;;;;5.20;1.00;;;;;;;;;;5027057;28;20053;-63
2023/08/27 04:24:29;;;;;;;1.95;0.98;;;;;;;;;;5024988;28;20068;-62
2023/08/27 04:26:58;;;;;;;1.42;0.93;;;;;;;;;;5027879;28;20085;-62
2023/08/27 04:29:27;;;;;;;4.97;1.02;;;;;;;;;;5024753;28;20626;-62
2023/08/27 04:31:57;;;;;;;1.85;1.10;;;;;;;;;;5025592;28;20100;-63
2023/08/27 04:34:25;;;;;;;1.80;1.10;;;;;;;;;;5026253;28;20300;-63
2023/08/27 04:36:55;;;;;;;3.38;1.17;;;;;;;;;;5028289;28;20049;-63
2023/08/27 04:39:26;;;;;;;4.00;1.52;;;;;;;;;;5024785;28;20128;-62
2023/08/27 04:41:54;;;;;;;2.30;1.10;;;;;;;;;;5022167;28;20129;-62
2023/08/27 04:44:23;;;;;;;2.10;1.10;;;;;;;;;;5027645;28;20057;-62
2023/08/27 04:46:51;;;;;;;4.10;1.50;;;;;;;;;;5024999;28;20450;-62
2023/08/27 04:49:21;;;;;;;5.60;1.52;;;;;;;;;;5026799;28;20049;-63
2023/08/27 04:51:49;;;;;;;4.18;1.30;;;;;;;;;;5025870;28;20073;-61
2023/08/27 04:54:17;;;;;;;2.17;1.17;;;;;;;;;;5027920;28;20473;-61
2023/08/27 04:56:46;;;;;;;2.50;1.20;;;;;;;;;;5026069;28;20046;-62
2023/08/27 04:59:14;;;;;;;3.50;1.42;;;;;;;;;;5024694;28;20073;-61
2023/08/27 05:01:42;;;;;;;3.30;1.40;;;;;;;;;;5024806;28;20053;-62
2023/08/27 05:04:11;;;;;;;4.68;1.30;;;;;;;;;;5022261;28;20084;-61
2023/08/27 05:06:41;;;;;;;2.50;1.30;;;;;;;;;;5026927;28;20049;-62
2023/08/27 05:09:09;;;;;;;5.18;1.40;;;;;;;;;;5025622;28;20130;-63
2023/08/27 05:11:37;;;;;;;4.05;1.60;;;;;;;;;;5021337;28;20073;-61
2023/08/27 05:14:06;;;;;;;2.42;1.50;;;;;;;;;;5019426;28;20053;-61
2023/08/27 05:16:35;;;;;;;2.38;1.45;;;;;;;;;;5022851;28;20084;-63
2023/08/27 05:19:03;;;;;;;6.85;1.35;;;;;;;;;;5026620;28;20041;-62
2023/08/27 05:21:32;;;;;;;5.40;1.65;;;;;;;;;;5025482;28;20045;-63
2023/08/27 05:24:01;;;;;;;2.45;1.08;;;;;;;;;;5026550;28;20081;-61
2023/08/27 05:26:30;;;;;;;2.97;1.27;;;;;;;;;;5027168;28;20041;-61
2023/08/27 05:28:58;;;;;;;3.63;1.55;;;;;;;;;;5025350;28;20123;-63
2023/08/27 05:31:27;;;;;;;3.30;1.48;;;;;;;;;;5020317;28;20081;-62
2023/08/27 05:33:55;;;;;;;5.05;1.45;;;;;;;;;;5022874;28;20086;-62
2023/08/27 05:36:23;;;;;;;3.35;1.40;;;;;;;;;;5018485;28;20045;-62
2023/08/27 05:38:52;;;;;;;2.92;1.30;;;;;;;;;;5024775;28;20053;-62
2023/08/27 05:41:21;;;;;;;5.03;1.73;;;;;;;;;;5020344;28;20136;-61
2023/08/27 05:43:50;;;;;;;2.67;1.42;;;;;;;;;;5028548;28;20084;-63
2023/08/27 05:46:18;;;;;;;2.97;1.13;;;;;;;;;;5027788;28;20354;-62
2023/08/27 05:48:47;;;;;;;2.10;1.25;;;;;;;;;;5028920;28;20049;-62
2023/08/27 05:51:15;;;;;;;2.42;1.25;;;;;;;;;;5028721;28;20510;-63
2023/08/27 05:53:44;;;;;;;2.30;1.35;;;;;;;;;;5031768;28;20112;-61
2023/08/27 05:56:12;;;;;;;2.35;1.13;;;;;;;;;;5027485;28;20111;-61
2023/08/27 05:58:42;;;;;;;2.85;1.42;;;;;;;;;;5018561;28;20077;-62
2023/08/27 06:01:10;;;;;;;2.60;1.33;;;;;;;;;;5027520;28;20506;-62
2023/08/27 06:03:38;;;;;;;2.47;1.42;;;;;;;;;;5027522;28;20414;-63
2023/08/27 06:06:07;;;;;;;1.27;1.02;;;;;;;;;;5026116;28;20399;-61
2023/08/27 06:08:35;;;;;;;3.03;1.23;;;;;;;;;;5027904;28;20045;-61
2023/08/27 06:11:04;;;;;;;2.80;1.20;;;;;;;;;;5025026;28;20441;-62
2023/08/27 06:13:32;;;;;;;3.05;1.10;;;;;;;;;;5025971;28;20045;-62
2023/08/27 06:16:03;;;;;;;1.98;1.20;;;;;;;;;;5025495;28;20080;-61
2023/08/27 06:18:31;;;;;;;3.15;1.00;;;;;;;;;;5025776;28;20568;-64
2023/08/27 06:21:00;;;;;;;2.53;1.25;;;;;;;;;;5025864;28;20250;-61
2023/08/27 06:23:29;;;;;;;2.67;1.75;;;;;;;;;;5028356;28;20089;-61
2023/08/27 06:26:02;;;;;;;3.95;1.02;;;;;;;;;;5027063;28;20049;-62
2023/08/27 06:28:31;;;;;;;2.85;1.20;;;;;;;;;;5024328;28;20445;-63
2023/08/27 06:30:59;;;;;;;1.75;1.10;;;;;;;;;;5024438;28;20396;-63
2023/08/27 06:33:29;;;;;;;1.67;1.08;;;;;;;;;;5026196;28;20518;-61
2023/08/27 06:35:57;;;;;;;1.88;1.23;;;;;;;;;;5025257;28;20049;-62
2023/08/27 06:38:26;;;;;;;2.45;1.30;;;;;;;;;;5027452;28;20045;-61
2023/08/27 06:40:55;;;;;;;4.28;1.63;;;;;;;;;;5018574;28;20107;-62
2023/08/27 06:43:23;;;;;;;2.63;1.25;;;;;;;;;;5021019;28;20043;-63
2023/08/27 06:45:52;;;;;;;3.25;1.20;;;;;;;;;;5027228;28;20084;-62
2023/08/27 06:48:20;;;;;;;1.90;1.25;;;;;;;;;;5025204;28;20136;-62
2023/08/27 06:50:50;;;;;;;2.35;1.30;;;;;;;;;;5024373;28;20136;-61
2023/08/27 06:53:20;;;;;;;2.25;0.90;;;;;;;;;;5018285;28;20097;-62
2023/08/27 06:55:48;;;;;;;2.35;1.00;;;;;;;;;;5025480;28;20049;-63
2023/08/27 06:58:17;;;;;;;1.67;0.93;;;;;;;;;;5018886;28;20073;-63
2023/08/27 07:00:46;;;;;;;1.60;0.85;;;;;;;;;;5022942;28;20088;-62
2023/08/27 07:03:15;;;;;;;4.15;0.90;;;;;;;;;;5023318;28;20103;-63
2023/08/27 07:05:43;;;;;;;3.25;1.30;;;;;;;;;;5027129;28;20408;-63
2023/08/27 07:08:13;;;;;;;2.05;0.90;;;;;;;;;;5016909;28;20277;-61
2023/08/27 07:10:41;;;;;;;3.25;1.30;;;;;;;;;;5026051;28;20053;-63
2023/08/27 07:13:11;;;;;;;1.40;0.80;;;;;;;;;;5023549;28;20136;-63
2023/08/27 07:15:40;;;;;;;1.80;0.75;;;;;;;;;;5025110;28;20045;-62
2023/08/27 07:18:08;;;;;;;1.75;1.10;;;;;;;;;;5016712;28;20056;-62
2023/08/27 07:20:37;;;;;;;2.00;1.05;;;;;;;;;;5025905;28;20557;-62
2023/08/27 07:23:05;;;;;;;2.85;1.30;;;;;;;;;;5024939;28;20482;-62
2023/08/27 07:25:36;;;;;;;3.72;0.90;;;;;;;;;;5024674;28;20065;-61
2023/08/27 07:28:05;;;;;;;2.80;0.75;;;;;;;;;;5024226;28;20069;-62
2023/08/27 07:30:33;;;;;;;2.88;1.02;;;;;;;;;;5018088;28;20541;-63
2023/08/27 07:33:02;;;;;;;2.15;1.00;;;;;;;;;;5026112;28;20128;-63
2023/08/27 07:35:31;;;;;;;2.75;1.10;;;;;;;;;;5025334;28;20453;-62
2023/08/27 07:37:59;;;;;;;3.65;1.13;;;;;;;;;;5025179;28;20489;-63
2023/08/27 07:40:29;;;;;;;2.58;0.95;;;;;;;;;;5025910;28;20137;-62
2023/08/27 07:42:59;;;;;;;2.95;1.33;;;;;;;;;;5024972;28;20683;-61
2023/08/27 07:45:27;;;;;;;1.38;1.00;;;;;;;;;;5025289;28;20053;-61
2023/08/27 07:47:56;;;;;;;1.63;1.00;;;;;;;;;;5024042;28;20102;-62
2023/08/27 07:50:24;;;;;;;3.25;1.23;;;;;;;;;;5020545;28;20056;-61
2023/08/27 07:52:53;;;;;;;1.25;0.70;;;;;;;;;;5024546;28;20557;-62
2023/08/27 07:55:21;;;;;;;3.40;1.10;;;;;;;;;;5025376;28;20501;-63
2023/08/27 07:57:49;;;;;;;2.20;0.90;;;;;;;;;;5024753;28;20045;-62
2023/08/27 08:00:20;;;;;;;1.45;1.00;;;;;;;;;;5027438;28;20053;-63
2023/08/27 08:02:49;;;;;;;1.88;1.05;;;;;;;;;;5022708;28;20423;-63
2023/08/27 08:05:17;;;;;;;1.70;0.90;;;;;;;;;;5024961;28;20119;-64
2023/08/27 08:07:46;;;;;;;2.05;1.15;;;;;;;;;;5024497;28;20138;-62
2023/08/27 08:10:14;;;;;;;2.25;1.00;;;;;;;;;;5023707;28;20500;-62
2023/08/27 08:12:43;;;;;;;2.42;1.35;;;;;;;;;;5017521;28;20045;-62
2023/08/27 08:15:12;;;;;;;3.15;0.95;;;;;;;;;;5021737;28;20142;-63
2023/08/27 08:17:42;;;;;;;3.00;0.93;;;;;;;;;;5023500;28;20415;-64
2023/08/27 08:20:27;;;;;;;2.80;1.25;;;;;;;;;;5022488;28;20430;-62
2023/08/27 08:22:55;;;;;;;3.42;1.08;;;;;;;;;;5024749;28;20053;-63
2023/08/27 08:25:25;;;;;;;3.60;0.98;;;;;;;;;;5024465;28;20045;-64
2023/08/27 08:27:53;;;;;;;2.70;0.95;;;;;;;;;;5019403;28;20207;-63
2023/08/27 08:30:22;;;;;;;4.93;1.20;;;;;;;;;;5023652;28;20149;-62
2023/08/27 08:32:52;;;;;;;2.80;0.98;;;;;;;;;;5020518;28;20297;-63
2023/08/27 08:35:21;;;;;;;4.13;1.20;;;;;;;;;;5019692;28;20533;-63
2023/08/27 08:37:49;;;;;;;2.47;1.05;;;;;;;;;;5025603;28;20819;-63
2023/08/27 08:40:18;;;;;;;3.38;1.33;;;;;;;;;;5022619;28;20329;-63
2023/08/27 08:42:50;;;;;;;1.95;0.77;;;;;;;;;;5023068;28;20049;-62
2023/08/27 08:45:21;;;;;;;3.78;0.90;;;;;;;;;;5014282;28;20128;-62
2023/08/27 08:47:51;;;;;;;2.53;0.90;;;;;;;;;;5019589;28;20044;-63
2023/08/27 08:50:22;;;;;;;2.35;1.08;;;;;;;;;;5019712;28;20068;-63
2023/08/27 08:52:51;;;;;;;1.10;0.75;;;;;;;;;;5023978;28;20081;-63
2023/08/27 08:55:22;;;;;;;2.55;1.20;;;;;;;;;;5023361;28;20131;-63
2023/08/27 08:57:53;;;;;;;3.38;0.90;;;;;;;;;;5024254;28;20147;-63
2023/08/27 09:00:22;;;;;;;3.13;1.52;;;;;;;;;;5023026;28;20084;-63
2023/08/27 09:02:51;;;;;;;2.78;0.82;;;;;;;;;;5024318;28;20107;-62
2023/08/27 09:05:20;;;;;;;2.70;0.90;;;;;;;;;;5021531;28;20777;-63
2023/08/27 09:07:50;;;;;;;2.75;0.90;;;;;;;;;;5023591;28;20056;-63
2023/08/27 09:10:19;;;;;;;1.17;0.77;;;;;;;;;;5023606;28;20107;-62
2023/08/27 09:12:48;;;;;;;1.88;0.90;;;;;;;;;;5019916;28;20545;-63
2023/08/27 09:15:16;;;;;;;1.20;0.80;;;;;;;;;;5022699;28;20045;-62
2023/08/27 09:17:44;;;;;;;1.52;0.82;;;;;;;;;;5023915;28;20115;-62
2023/08/27 09:20:13;;;;;;;1.00;0.60;;;;;;;;;;5020693;28;20045;-62
2023/08/27 09:22:42;;;;;;;3.70;1.00;;;;;;;;;;5021173;28;20095;-63
2023/08/27 09:25:12;;;;;;;2.05;0.70;;;;;;;;;;5020303;28;20100;-62
2023/08/27 09:27:40;;;;;;;0.80;0.60;;;;;;;;;;5021828;28;20111;-61
2023/08/27 09:30:10;;;;;;;1.58;0.75;;;;;;;;;;5020683;28;20099;-61
2023/08/27 09:32:38;;;;;;;1.95;0.80;;;;;;;;;;5020714;28;20099;-61
2023/08/27 09:35:07;;;;;;;3.00;0.70;;;;;;;;;;5016571;28;20346;-62
2023/08/27 09:37:39;;;;;;;1.48;0.80;;;;;;;;;;5023893;28;20153;-62
2023/08/27 09:40:08;;;;;;;2.13;0.80;;;;;;;;;;5018990;28;20553;-63
2023/08/27 09:42:38;;;;;;;3.08;0.80;;;;;;;;;;5015480;28;20498;-62
2023/08/27 09:45:08;;;;;;;1.95;0.90;;;;;;;;;;5022165;28;20092;-63
2023/08/27 09:47:37;;;;;;;0.98;0.68;;;;;;;;;;5023367;28;20555;-62
2023/08/27 09:50:07;;;;;;;2.25;0.57;;;;;;;;;;5021815;28;20049;-63
2023/08/27 09:52:35;;;;;;;1.58;0.88;;;;;;;;;;5017825;28;20056;-63
2023/08/27 09:55:05;;;;;;;1.58;0.80;;;;;;;;;;5024135;28;20053;-64
2023/08/27 09:57:34;;;;;;;6.05;0.73;;;;;;;;;;5023786;28;20294;-62
2023/08/27 10:00:08;;;;;;;1.67;0.70;;;;;;;;;;5023369;28;20057;-65
2023/08/27 10:02:37;;;;;;;3.95;0.80;;;;;;;;;;5020266;28;20510;-63
2023/08/27 10:05:09;;;;;;;1.88;0.60;;;;;;;;;;5020166;28;20499;-63
2023/08/27 10:07:38;;;;;;;0.98;0.70;;;;;;;;;;5021923;28;20474;-63
2023/08/27 10:10:07;;;;;;;2.58;0.82;;;;;;;;;;5022518;28;20125;-64
2023/08/27 10:12:35;;;;;;;1.05;0.57;;;;;;;;;;5023559;28;20096;-63
2023/08/27 10:15:06;;;;;;;1.33;0.80;;;;;;;;;;5021224;28;20049;-63
2023/08/27 10:17:34;;;;;;;1.35;0.65;;;;;;;;;;5023853;28;20045;-63
2023/08/27 10:20:03;;;;;;;1.60;0.60;;;;;;;;;;5022102;28;20046;-62
2023/08/27 10:22:33;;;;;;;2.47;0.75;;;;;;;;;;5017429;28;20081;-63
2023/08/27 10:25:04;;;;;;;1.45;0.60;;;;;;;;;;5020615;28;20123;-64
2023/08/27 10:27:33;;;;;;;2.35;0.60;;;;;;;;;;5021463;28;20088;-63
2023/08/27 10:30:07;;;;;;;1.27;0.70;;;;;;;;;;5023275;28;20052;-62
2023/08/27 10:32:37;;;;;;;2.22;0.50;;;;;;;;;;5023147;28;20049;-61
2023/08/27 10:35:06;;;;;;;1.33;0.70;;;;;;;;;;5025139;28;20560;-61
2023/08/27 10:37:35;;;;;;;1.52;0.80;;;;;;;;;;5015219;28;20053;-63
2023/08/27 10:40:08;;;;;;;2.03;0.60;;;;;;;;;;5019773;28;20049;-63
2023/08/27 10:42:37;;;;;;;1.90;0.50;;;;;;;;;;5016354;28;20586;-65
2023/08/27 10:45:12;;;;;;;0.75;0.43;;;;;;;;;;5013554;28;21001;-60
2023/08/27 10:47:42;;;;;;;3.97;0.70;;;;;;;;;;5019605;28;20049;-62
2023/08/27 10:50:22;;;;;;;1.63;0.80;;;;;;;;;;5022870;28;20498;-60
2023/08/27 10:52:51;;;;;;;1.77;0.85;;;;;;;;;;5019756;28;20115;-66
2023/08/27 10:55:34;;;;;;;1.23;0.63;;;;;;;;;;5015657;28;20087;-60
2023/08/27 10:58:15;;;;;;;2.50;0.50;;;;;;;;;;5015122;28;20061;-62
2023/08/27 11:01:08;;;;;;;1.85;0.88;;;;;;;;;;5019935;28;20517;-62
2023/08/27 11:03:55;;;;;;;1.42;0.70;;;;;;;;;;5011384;28;20045;-62
2023/08/27 11:06:33;;;;;;;1.58;0.82;;;;;;;;;;5025371;28;20050;-62
2023/08/27 11:09:04;;;;;;;8.07;1.00;;;;;;;;;;5022976;28;20545;-61
2023/08/27 11:11:50;;;;;;;3.63;0.88;;;;;;;;;;5024639;28;20407;-63
2023/08/27 11:14:19;;;;;;;2.28;0.90;;;;;;;;;;5025897;28;20049;-62
2023/08/27 11:16:49;;;;;;;1.77;0.80;;;;;;;;;;5026641;28;20513;-62
2023/08/27 11:19:30;;;;;;;1.65;0.73;;;;;;;;;;5024418;28;20041;-61
2023/08/27 11:22:11;;;;;;;1.98;1.00;;;;;;;;;;5018719;28;20049;-61
2023/08/27 11:24:43;;;;;;;2.30;1.00;;;;;;;;;;5017595;28;20051;-60
2023/08/27 11:27:12;;;;;;;1.48;0.90;;;;;;;;;;5028674;28;20081;-59
2023/08/27 11:29:41;;;;;;;1.75;0.77;;;;;;;;;;5028482;28;20781;-60
2023/08/27 11:32:10;;;;;;;2.58;1.00;;;;;;;;;;5028655;28;20123;-60
2023/08/27 11:34:41;;;;;;;2.90;1.00;;;;;;;;;;5027574;28;20487;-63
2023/08/27 11:37:09;;;;;;;1.58;0.88;;;;;;;;;;5028202;28;20372;-60
2023/08/27 11:39:38;;;;;;;1.27;0.50;;;;;;;;;;5028304;28;20049;-60
2023/08/27 11:42:11;;;;;;;2.05;1.00;;;;;;;;;;5022960;28;20050;-60
2023/08/27 11:44:49;;;;;;;1.48;0.70;;;;;;;;;;5027971;28;20056;-61
2023/08/27 11:47:18;;;;;;;3.53;0.82;;;;;;;;;;5029470;28;20057;-58
2023/08/27 11:49:48;;;;;;;5.75;0.90;;;;;;;;;;5023523;28;20665;-59
2023/08/27 11:52:16;;;;;;;2.13;0.80;;;;;;;;;;5021998;28;20045;-60
2023/08/27 11:54:46;;;;;;;2.17;0.90;;;;;;;;;;5030842;28;20491;-59
2023/08/27 11:57:15;;;;;;;3.38;1.00;;;;;;;;;;5022722;28;20065;-59
2023/08/27 11:59:44;;;;;;;2.13;0.98;;;;;;;;;;5024139;28;20054;-59
2023/08/27 12:02:13;;;;;;;2.38;1.27;;;;;;;;;;5027632;28;20146;-58
2023/08/27 12:04:43;;;;;;;1.98;0.82;;;;;;;;;;5021401;28;20143;-58
2023/08/27 12:07:13;;;;;;;1.77;0.85;;;;;;;;;;5024648;28;20096;-59
2023/08/27 12:09:42;;;;;;;1.20;0.70;;;;;;;;;;5024767;28;20095;-58
2023/08/27 12:12:10;;;;;;;4.95;1.00;;;;;;;;;;5027061;28;20446;-57
2023/08/27 12:14:39;;;;;;;1.10;0.73;;;;;;;;;;5025073;28;20130;-58
2023/08/27 12:17:08;;;;;;;1.10;0.65;;;;;;;;;;5025650;28;20071;-60
2023/08/27 12:19:38;;;;;;;4.70;1.17;;;;;;;;;;5021926;28;20056;-58
2023/08/27 12:22:06;;;;;;;2.83;1.10;;;;;;;;;;5024575;28;20198;-63
2023/08/27 12:24:37;;;;;;;2.92;0.90;;;;;;;;;;5022934;28;20123;-57
2023/08/27 12:27:06;;;;;;;0.85;0.60;;;;;;;;;;5027351;28;20132;-59
2023/08/27 12:29:35;;;;;;;2.05;0.90;;;;;;;;;;5022523;28;20654;-58
2023/08/27 12:32:10;;;;;;;2.17;0.98;;;;;;;;;;5034011;28;20106;-59
2023/08/27 12:34:39;;;;;;;1.27;0.80;;;;;;;;;;5026160;28;20454;-58
2023/08/27 12:37:07;;;;;;;3.92;0.90;;;;;;;;;;5027443;28;20052;-58
2023/08/27 12:39:37;;;;;;;2.50;0.68;;;;;;;;;;5024211;28;20049;-60
2023/08/27 12:42:06;;;;;;;1.98;0.50;;;;;;;;;;5020138;28;20050;-60
2023/08/27 12:44:35;;;;;;;1.50;0.80;;;;;;;;;;5027209;28;20049;-59
2023/08/27 12:47:03;;;;;;;2.00;0.60;;;;;;;;;;5022526;28;20088;-58
2023/08/27 12:49:32;;;;;;;0.75;0.65;;;;;;;;;;5023000;28;20053;-59
2023/08/27 12:52:00;;;;;;;1.23;0.45;;;;;;;;;;5020085;28;20906;-59
2023/08/27 12:54:29;;;;;;;2.58;0.93;;;;;;;;;;5024207;28;20055;-59
2023/08/27 12:56:59;;;;;;;1.25;0.65;;;;;;;;;;5024354;28;20041;-58
2023/08/27 12:59:28;;;;;;;1.48;0.52;;;;;;;;;;5034284;28;20485;-61
2023/08/27 13:01:56;;;;;;;3.38;0.68;;;;;;;;;;5019992;28;20053;-59
2023/08/27 13:04:25;;;;;;;1.90;0.82;;;;;;;;;;5025381;28;20445;-58
2023/08/27 13:06:54;;;;;;;0.98;0.50;;;;;;;;;;5024137;28;20060;-60
2023/08/27 13:09:22;;;;;;;2.38;0.60;;;;;;;;;;5025458;28;20107;-61
2023/08/27 13:11:51;;;;;;;1.30;0.50;;;;;;;;;;5025204;28;20418;-60
2023/08/27 13:14:21;;;;;;;1.08;0.60;;;;;;;;;;5023731;28;20507;-59
2023/08/27 13:16:50;;;;;;;0.75;0.47;;;;;;;;;;5023726;28;20438;-59
2023/08/27 13:19:18;;;;;;;2.05;0.70;;;;;;;;;;5016727;28;20490;-60
2023/08/27 13:21:47;;;;;;;0.52;0.40;;;;;;;;;;5022962;28;20049;-60
2023/08/27 13:24:16;;;;;;;0.75;0.50;;;;;;;;;;5022406;28;20099;-62
2023/08/27 13:26:47;;;;;;;0.95;0.60;;;;;;;;;;5022096;28;20045;-59
2023/08/27 13:29:16;;;;;;;1.40;0.50;;;;;;;;;;5021286;28;20578;-58
2023/08/27 13:31:45;;;;;;;1.30;0.50;;;;;;;;;;5017772;28;20100;-60
2023/08/27 13:34:14;;;;;;;2.28;0.82;;;;;;;;;;5020405;28;20156;-58
2023/08/27 13:36:42;;;;;;;1.35;0.70;;;;;;;;;;5019314;28;20053;-60
2023/08/27 13:39:11;;;;;;;1.58;0.85;;;;;;;;;;5022245;28;20045;-58
2023/08/27 13:41:39;;;;;;;2.15;0.73;;;;;;;;;;5019044;28;20041;-59
2023/08/27 13:44:08;;;;;;;1.90;0.63;;;;;;;;;;5020215;28;20048;-60
2023/08/27 13:46:36;;;;;;;1.00;0.50;;;;;;;;;;5018595;28;20686;-60
2023/08/27 13:49:07;;;;;;;0.70;0.52;;;;;;;;;;5016315;28;20053;-62
2023/08/27 13:51:35;;;;;;;0.50;0.47;;;;;;;;;;5020649;28;20111;-59
2023/08/27 13:54:05;;;;;;;2.03;0.63;;;;;;;;;;5019218;28;20085;-61
2023/08/27 13:56:33;;;;;;;0.98;0.60;;;;;;;;;;5020727;28;20131;-63
2023/08/27 13:59:02;;;;;;;0.77;0.38;;;;;;;;;;5022450;28;20121;-61
2023/08/27 14:01:30;;;;;;;0.90;0.68;;;;;;;;;;5019004;28;20045;-60
2023/08/27 14:03:59;;;;;;;1.02;0.50;;;;;;;;;;5019131;28;20053;-60
2023/08/27 14:06:29;;;;;;;0.70;0.45;;;;;;;;;;5022551;28;20406;-60
2023/08/27 14:08:57;;;;;;;1.98;0.60;;;;;;;;;;5026272;28;20053;-59
2023/08/27 14:11:26;;;;;;;1.67;0.63;;;;;;;;;;5020084;28;20361;-62
2023/08/27 14:13:54;;;;;;;0.90;0.47;;;;;;;;;;5019148;28;20517;-58
2023/08/27 14:16:22;;;;;;;3.22;0.80;;;;;;;;;;5024418;28;20956;-59
2023/08/27 14:18:51;;;;;;;3.60;1.00;;;;;;;;;;5026065;28;20056;-58
2023/08/27 14:21:19;;;;;;;1.30;0.65;;;;;;;;;;5028247;28;20080;-59
2023/08/27 14:23:49;;;;;;;1.40;0.50;;;;;;;;;;5029848;28;20049;-58
2023/08/27 14:26:17;;;;;;;2.72;0.70;;;;;;;;;;5025776;28;20608;-61
2023/08/27 14:28:47;;;;;;;1.02;0.40;;;;;;;;;;5028500;28;20080;-59
2023/08/27 14:31:16;;;;;;;1.95;0.73;;;;;;;;;;5029552;28;20053;-58
2023/08/27 14:33:44;;;;;;;0.88;0.40;;;;;;;;;;5028012;28;20060;-59
2023/08/27 14:36:13;;;;;;;0.63;0.50;;;;;;;;;;5030179;28;20056;-61
2023/08/27 14:38:43;;;;;;;1.13;0.63;;;;;;;;;;5027322;28;20045;-60
2023/08/27 14:41:13;;;;;;;0.95;0.50;;;;;;;;;;5029416;28;20088;-59
2023/08/27 14:43:42;;;;;;;0.73;0.40;;;;;;;;;;5021412;28;20147;-59
2023/08/27 14:46:10;;;;;;;1.50;0.50;;;;;;;;;;5029055;28;20061;-60
2023/08/27 14:48:38;;;;;;;0.85;0.50;;;;;;;;;;5027269;28;20111;-61
2023/08/27 14:51:07;;;;;;;0.75;0.40;;;;;;;;;;5027572;28;20139;-60
2023/08/27 14:53:35;;;;;;;2.65;0.40;;;;;;;;;;5022749;28;20045;-62
2023/08/27 14:56:04;;;;;;;1.63;0.70;;;;;;;;;;5024763;28;20480;-61